Time;durP1;ratioP1;P1;durP2;ratioP2;P2;SDS_P1;SDS_P2;PMS_P1;PMS_P2;Temp;Humidity;BMP_temperature;BMP_pressure;BME280_temperature;BME280_humidity;BME280_pressure;Samples;Min_cycle;Max_cycle;Signal;HPM_P1;HPM_P2
2021/07/07 00:00:14;;;;;;;5.85;1.67;;;;;;;18.11;80.05;93504.91;718481;41;20068;-81
2021/07/07 00:00:45;;;;;;;5.97;1.52;;;;;;;18.02;80.00;93497.69;712893;41;20026;-82
2021/07/07 00:01:16;;;;;;;4.43;1.67;;;;;;;17.94;80.24;93487.81;718871;41;20042;-84
2021/07/07 00:01:47;;;;;;;2.65;1.63;;;;;;;18.04;80.28;93513.16;719185;41;20089;-83
2021/07/07 00:02:17;;;;;;;3.92;1.60;;;;;;;18.02;80.13;93499.50;717424;41;20034;-82
2021/07/07 00:02:49;;;;;;;7.13;1.83;;;;;;;17.92;80.31;93505.72;717629;41;20037;-81
2021/07/07 00:03:19;;;;;;;6.68;1.50;;;;;;;17.96;80.19;93511.97;719744;41;20064;-81
2021/07/07 00:03:51;;;;;;;2.33;1.27;;;;;;;17.98;80.49;93517.72;718728;41;20041;-82
2021/07/07 00:04:21;;;;;;;3.50;1.60;;;;;;;17.90;80.60;93509.69;721427;41;20485;-82
2021/07/07 00:04:52;;;;;;;2.95;1.48;;;;;;;17.96;80.22;93519.84;720527;41;20029;-81
2021/07/07 00:05:23;;;;;;;3.30;1.50;;;;;;;17.96;80.37;93514.59;721062;41;20097;-82
2021/07/07 00:05:53;;;;;;;8.77;1.75;;;;;;;17.97;80.47;93526.69;710425;41;20944;-82
2021/07/07 00:06:24;;;;;;;2.88;1.88;;;;;;;17.90;80.56;93510.47;718546;41;20053;-82
2021/07/07 00:06:54;;;;;;;5.65;1.67;;;;;;;17.95;80.15;93522.78;718153;41;20067;-82
2021/07/07 00:07:25;;;;;;;4.13;1.45;;;;;;;17.98;80.30;93522.97;715124;41;20051;-82
2021/07/07 00:07:56;;;;;;;3.40;1.58;;;;;;;18.00;80.34;93526.13;712793;41;20069;-83
2021/07/07 00:08:27;;;;;;;2.30;1.60;;;;;;;17.97;80.33;93528.56;719355;41;20037;-82
2021/07/07 00:08:57;;;;;;;3.90;1.55;;;;;;;17.97;80.09;93526.69;718446;41;20116;-81
2021/07/07 00:09:28;;;;;;;3.15;1.60;;;;;;;17.95;80.26;93528.03;720395;41;20052;-82
2021/07/07 00:09:58;;;;;;;3.05;1.70;;;;;;;17.93;80.12;93535.44;719967;41;20639;-81
2021/07/07 00:10:33;;;;;;;3.63;1.60;;;;;;;17.96;80.32;93526.97;720766;41;20043;-82
2021/07/07 00:11:04;;;;;;;2.25;1.80;;;;;;;17.96;80.35;93529.59;718582;41;20046;-82
2021/07/07 00:11:34;;;;;;;1.58;1.40;;;;;;;17.97;80.30;93531.97;719327;41;20033;-82
2021/07/07 00:12:05;;;;;;;3.53;1.33;;;;;;;17.97;80.47;93529.31;719128;41;20571;-81
2021/07/07 00:12:36;;;;;;;3.47;1.42;;;;;;;17.95;80.42;93538.56;717766;41;20041;-81
2021/07/07 00:13:07;;;;;;;2.00;1.50;;;;;;;17.90;80.70;93536.78;716672;41;20747;-82
2021/07/07 00:13:37;;;;;;;2.05;1.30;;;;;;;17.90;80.37;93536.00;712197;41;20239;-81
2021/07/07 00:14:08;;;;;;;7.88;1.67;;;;;;;17.93;80.92;93538.84;713881;41;20098;-82
2021/07/07 00:14:38;;;;;;;3.10;1.50;;;;;;;17.85;81.00;93531.63;717061;41;20065;-82
2021/07/07 00:15:15;;;;;;;1.70;1.50;;;;;;;17.84;80.64;93532.66;719799;41;20037;-81
2021/07/07 00:15:46;;;;;;;3.22;1.52;;;;;;;17.85;80.85;93534.25;720087;41;20057;-82
2021/07/07 00:16:17;;;;;;;2.53;1.40;;;;;;;17.81;80.71;93530.59;721156;41;20040;-83
2021/07/07 00:16:50;;;;;;;2.22;1.45;;;;;;;17.76;80.88;93534.06;719611;41;20276;-81
2021/07/07 00:17:20;;;;;;;3.03;1.45;;;;;;;17.84;80.79;93543.19;721237;41;20085;-81
2021/07/07 00:17:51;;;;;;;3.85;1.40;;;;;;;17.79;80.50;93545.88;720398;41;20036;-81
2021/07/07 00:18:22;;;;;;;3.13;1.60;;;;;;;17.77;81.15;93542.75;721548;41;20146;-81
2021/07/07 00:18:53;;;;;;;3.90;1.80;;;;;;;17.75;81.21;93543.00;720035;41;20722;-82
2021/07/07 00:19:24;;;;;;;4.18;1.80;;;;;;;17.73;81.14;93546.97;720264;41;20057;-82
2021/07/07 00:19:54;;;;;;;4.07;1.40;;;;;;;17.69;81.12;93540.75;719150;41;20714;-81
2021/07/07 00:20:26;;;;;;;2.78;1.60;;;;;;;17.71;81.27;93544.66;720998;41;20033;-82
2021/07/07 00:20:57;;;;;;;3.90;1.42;;;;;;;17.70;81.01;93540.44;719926;41;20052;-82
2021/07/07 00:21:27;;;;;;;2.78;1.40;;;;;;;17.66;81.21;93536.03;720060;41;20039;-82
2021/07/07 00:21:59;;;;;;;2.28;1.40;;;;;;;17.71;81.13;93543.88;718669;41;20040;-81
2021/07/07 00:22:29;;;;;;;2.75;1.48;;;;;;;17.67;80.90;93530.47;723027;41;20083;-81
2021/07/07 00:23:01;;;;;;;3.78;1.50;;;;;;;17.58;81.26;93546.13;721996;41;20169;-81
2021/07/07 00:23:32;;;;;;;2.72;1.42;;;;;;;17.57;81.41;93543.78;722780;40;20036;-82
2021/07/07 00:24:02;;;;;;;4.00;1.60;;;;;;;17.59;81.52;93539.81;727186;40;20035;-81
2021/07/07 00:24:33;;;;;;;1.40;1.05;;;;;;;17.59;81.43;93544.28;725095;40;20118;-82
2021/07/07 00:25:06;;;;;;;5.15;1.40;;;;;;;17.45;81.98;93546.81;724156;40;20089;-81
2021/07/07 00:25:37;;;;;;;6.82;1.40;;;;;;;17.46;82.00;93548.38;723315;40;20039;-81
2021/07/07 00:26:07;;;;;;;1.35;1.20;;;;;;;17.42;82.04;93536.09;723388;40;21196;-81
2021/07/07 00:26:39;;;;;;;2.53;1.55;;;;;;;17.36;82.02;93540.63;723163;41;20065;-81
2021/07/07 00:27:10;;;;;;;6.00;1.50;;;;;;;17.34;82.11;93542.75;723737;41;20742;-81
2021/07/07 00:27:41;;;;;;;3.40;1.35;;;;;;;17.38;82.16;93543.75;722790;41;20032;-81
2021/07/07 00:28:12;;;;;;;2.50;1.63;;;;;;;17.37;82.57;93550.84;722342;41;20409;-81
2021/07/07 00:28:43;;;;;;;1.75;1.42;;;;;;;17.36;82.52;93551.16;720187;40;20318;-82
2021/07/07 00:29:13;;;;;;;2.47;1.50;;;;;;;17.36;82.04;93546.66;724229;41;20486;-82
2021/07/07 00:29:44;;;;;;;2.38;1.40;;;;;;;17.33;82.35;93546.44;723880;40;20024;-81
2021/07/07 00:30:15;;;;;;;4.93;1.50;;;;;;;17.38;82.26;93555.03;724133;41;20091;-82
2021/07/07 00:30:46;;;;;;;4.22;1.42;;;;;;;17.33;82.31;93541.97;721498;41;20028;-81
2021/07/07 00:31:17;;;;;;;2.63;1.55;;;;;;;17.35;82.05;93545.09;719604;41;20064;-81
2021/07/07 00:31:53;;;;;;;4.43;1.40;;;;;;;17.31;82.34;93551.97;714502;41;20059;-81
2021/07/07 00:32:31;;;;;;;4.80;1.50;;;;;;;17.32;82.41;93550.13;718053;41;20502;-81
2021/07/07 00:33:02;;;;;;;2.22;1.30;;;;;;;17.31;82.42;93559.09;715592;41;20458;-81
2021/07/07 00:33:33;;;;;;;4.03;1.27;;;;;;;17.20;82.77;93542.63;717692;41;20042;-81
2021/07/07 00:34:05;;;;;;;2.15;1.50;;;;;;;17.21;82.58;93546.81;719244;41;21722;-81
2021/07/07 00:34:36;;;;;;;3.90;1.30;;;;;;;17.27;82.44;93560.69;716068;41;20114;-81
2021/07/07 00:35:07;;;;;;;2.00;1.65;;;;;;;17.24;82.47;93551.53;717072;41;20120;-81
2021/07/07 00:35:38;;;;;;;1.48;1.25;;;;;;;17.25;82.71;93552.31;717343;41;20053;-81
2021/07/07 00:36:09;;;;;;;4.50;1.50;;;;;;;17.21;82.84;93556.56;720662;40;20041;-82
2021/07/07 00:36:39;;;;;;;4.15;1.30;;;;;;;17.14;83.14;93552.41;720187;41;20063;-82
2021/07/07 00:37:10;;;;;;;2.45;1.30;;;;;;;17.08;83.62;93558.81;718429;41;20061;-82
2021/07/07 00:37:40;;;;;;;3.47;1.58;;;;;;;16.97;83.79;93543.41;711801;41;20210;-81
2021/07/07 00:38:13;;;;;;;3.83;1.27;;;;;;;17.05;83.79;93554.09;718067;41;20030;-81
2021/07/07 00:38:43;;;;;;;2.17;1.30;;;;;;;16.99;83.49;93555.22;712853;41;20048;-81
2021/07/07 00:39:14;;;;;;;1.75;1.30;;;;;;;17.02;83.15;93557.28;722531;41;20036;-81
2021/07/07 00:39:44;;;;;;;1.98;1.40;;;;;;;17.00;83.50;93551.53;712535;40;20058;-81
2021/07/07 00:40:15;;;;;;;1.48;1.17;;;;;;;16.99;84.08;93552.59;722337;40;20130;-81
2021/07/07 00:40:46;;;;;;;3.60;1.35;;;;;;;16.97;83.68;93569.69;716047;40;20098;-81
2021/07/07 00:41:17;;;;;;;4.55;1.35;;;;;;;16.98;83.77;93563.38;720918;41;20136;-81
2021/07/07 00:41:47;;;;;;;1.88;1.15;;;;;;;16.98;84.07;93569.44;719466;40;20269;-81
2021/07/07 00:42:18;;;;;;;3.75;1.50;;;;;;;16.88;83.78;93564.25;715955;40;20272;-82
2021/07/07 00:42:49;;;;;;;3.42;1.40;;;;;;;16.84;84.18;93552.75;714982;40;20480;-82
2021/07/07 00:43:20;;;;;;;3.85;1.60;;;;;;;16.89;84.06;93561.38;716280;41;20139;-81
2021/07/07 00:43:51;;;;;;;2.63;1.60;;;;;;;16.89;83.56;93560.56;714099;41;21472;-81
2021/07/07 00:44:21;;;;;;;3.53;1.60;;;;;;;16.88;84.04;93565.03;718461;41;20077;-82
2021/07/07 00:44:52;;;;;;;5.20;1.40;;;;;;;16.87;84.29;93573.22;719456;41;20061;-81
2021/07/07 00:45:23;;;;;;;2.80;1.40;;;;;;;16.83;84.46;93580.84;720189;41;20202;-82
2021/07/07 00:45:54;;;;;;;2.05;1.52;;;;;;;16.80;84.71;93575.38;713117;40;20059;-81
2021/07/07 00:46:27;;;;;;;2.05;1.70;;;;;;;16.82;84.58;93584.53;722766;40;20036;-81
2021/07/07 00:46:58;;;;;;;3.95;1.42;;;;;;;16.82;84.53;93579.28;716985;40;20506;-82
2021/07/07 00:47:28;;;;;;;4.03;1.75;;;;;;;16.80;84.49;93578.00;714244;41;20029;-81
2021/07/07 00:47:59;;;;;;;11.25;1.58;;;;;;;16.71;84.90;93570.69;710564;41;20400;-82
2021/07/07 00:48:29;;;;;;;5.28;1.40;;;;;;;16.75;84.85;93576.19;714966;41;20050;-81
2021/07/07 00:49:00;;;;;;;3.15;1.45;;;;;;;16.76;84.71;93579.59;714556;41;20038;-81
2021/07/07 00:49:31;;;;;;;4.22;1.50;;;;;;;16.82;84.67;93583.75;716039;41;20113;-81
2021/07/07 00:50:01;;;;;;;5.05;1.30;;;;;;;16.71;84.78;93573.31;716773;41;20886;-82
2021/07/07 00:50:32;;;;;;;2.72;1.50;;;;;;;16.78;84.85;93572.22;718332;41;20102;-81
2021/07/07 00:51:04;;;;;;;3.75;1.50;;;;;;;16.75;84.79;93580.63;715580;41;21081;-81
2021/07/07 00:51:34;;;;;;;1.92;1.70;;;;;;;16.67;85.07;93572.31;715604;41;20534;-84
2021/07/07 00:52:05;;;;;;;2.00;1.75;;;;;;;16.66;85.25;93586.50;715897;41;20049;-80
2021/07/07 00:52:36;;;;;;;2.00;1.58;;;;;;;16.59;85.37;93567.63;712599;41;20026;-82
2021/07/07 00:53:10;;;;;;;2.85;1.65;;;;;;;16.69;85.14;93579.88;715151;41;20045;-81
2021/07/07 00:53:42;;;;;;;3.72;1.83;;;;;;;16.65;85.57;93571.00;718241;41;20033;-81
2021/07/07 00:54:14;;;;;;;4.88;1.60;;;;;;;16.66;85.64;93583.88;717615;40;20996;-81
2021/07/07 00:54:46;;;;;;;2.13;1.45;;;;;;;16.66;85.52;93578.63;707444;40;20894;-81
2021/07/07 00:55:17;;;;;;;2.17;1.50;;;;;;;16.63;85.67;93583.63;721311;40;20047;-82
2021/07/07 00:55:48;;;;;;;3.30;1.27;;;;;;;16.61;85.58;93581.28;723989;40;20038;-82
2021/07/07 00:56:20;;;;;;;3.17;1.70;;;;;;;16.66;85.54;93585.69;723113;41;20213;-81
2021/07/07 00:56:52;;;;;;;2.35;1.98;;;;;;;16.66;85.32;93577.81;720915;41;20024;-82
2021/07/07 00:57:27;;;;;;;6.60;1.70;;;;;;;16.71;85.09;93581.19;722089;41;21112;-81
2021/07/07 00:57:59;;;;;;;4.55;2.05;;;;;;;16.65;85.72;93571.78;721084;41;20464;-82
2021/07/07 00:58:32;;;;;;;1.98;1.73;;;;;;;16.62;85.37;93576.81;722860;41;20040;-81
2021/07/07 00:59:07;;;;;;;1.92;1.70;;;;;;;16.66;85.60;93577.81;722046;41;20032;-83
2021/07/07 00:59:38;;;;;;;3.17;1.67;;;;;;;16.61;85.97;93583.91;719518;41;20040;-82
2021/07/07 01:00:12;;;;;;;5.00;1.80;;;;;;;16.61;85.85;93581.28;718327;41;20086;-80
2021/07/07 01:00:42;;;;;;;2.20;1.58;;;;;;;16.60;85.85;93584.16;714167;41;20037;-82
2021/07/07 01:01:14;;;;;;;2.75;1.75;;;;;;;16.57;85.84;93579.47;712743;41;20066;-81
2021/07/07 01:01:44;;;;;;;2.03;1.63;;;;;;;16.53;85.99;93583.72;718269;40;20065;-81
2021/07/07 01:02:17;;;;;;;2.35;1.70;;;;;;;16.57;86.05;93580.25;713269;40;20037;-82
2021/07/07 01:02:53;;;;;;;3.63;1.80;;;;;;;16.53;86.26;93589.75;717997;40;20037;-80
2021/07/07 01:03:24;;;;;;;5.35;1.88;;;;;;;16.55;86.56;93598.16;723180;41;20524;-81
2021/07/07 01:03:55;;;;;;;1.98;1.65;;;;;;;16.48;86.40;93577.44;714919;41;20395;-81
2021/07/07 01:04:25;;;;;;;2.78;1.77;;;;;;;16.53;86.21;93576.63;724216;41;20028;-81
2021/07/07 01:04:56;;;;;;;2.50;2.17;;;;;;;16.59;86.11;93587.88;724056;41;20481;-81
2021/07/07 01:05:26;;;;;;;3.50;1.80;;;;;;;16.60;85.89;93584.16;726765;40;20083;-82
2021/07/07 01:05:57;;;;;;;1.88;1.67;;;;;;;16.59;86.03;93577.38;725708;40;20050;-81
2021/07/07 01:06:29;;;;;;;3.38;1.85;;;;;;;16.58;86.28;93581.06;724616;41;20048;-81
2021/07/07 01:06:59;;;;;;;2.67;1.83;;;;;;;16.57;86.21;93587.34;724866;40;20040;-81
2021/07/07 01:07:30;;;;;;;2.90;1.70;;;;;;;16.58;86.41;93586.31;726298;40;20032;-82
2021/07/07 01:08:01;;;;;;;4.13;1.77;;;;;;;16.54;86.71;93586.06;725713;40;20063;-81
2021/07/07 01:08:31;;;;;;;3.03;1.60;;;;;;;16.56;86.23;93588.41;723305;41;20040;-82
2021/07/07 01:09:03;;;;;;;2.42;1.88;;;;;;;16.53;86.42;93595.00;719625;41;20041;-81
2021/07/07 01:09:33;;;;;;;4.22;1.85;;;;;;;16.47;86.59;93588.22;715413;41;20048;-82
2021/07/07 01:10:06;;;;;;;2.95;1.90;;;;;;;16.53;86.37;93591.59;717566;41;20060;-81
2021/07/07 01:10:37;;;;;;;3.03;1.73;;;;;;;16.48;86.74;93587.94;721206;41;20029;-82
2021/07/07 01:11:07;;;;;;;3.33;1.92;;;;;;;16.47;86.75;93586.38;722306;41;20048;-82
2021/07/07 01:11:39;;;;;;;2.42;1.88;;;;;;;16.50;86.93;93598.19;724175;41;20256;-81
2021/07/07 01:12:09;;;;;;;1.60;1.50;;;;;;;16.47;86.97;93594.25;725042;40;20051;-86
2021/07/07 01:12:41;;;;;;;7.38;2.08;;;;;;;16.45;87.06;93587.72;716413;41;20068;-82
2021/07/07 01:13:13;;;;;;;5.43;2.05;;;;;;;16.48;87.10;93592.41;722345;41;20032;-81
2021/07/07 01:13:44;;;;;;;2.85;2.08;;;;;;;16.54;86.88;93601.81;722079;41;20100;-81
2021/07/07 01:14:14;;;;;;;4.10;1.80;;;;;;;16.53;86.63;93600.25;722166;41;20166;-81
2021/07/07 01:14:45;;;;;;;2.80;1.70;;;;;;;16.56;86.43;93604.94;720297;41;20269;-82
2021/07/07 01:15:19;;;;;;;4.03;1.77;;;;;;;16.54;86.78;93595.78;722392;41;20041;-81
2021/07/07 01:15:50;;;;;;;5.22;1.85;;;;;;;16.53;86.72;93602.88;718320;41;20109;-82
2021/07/07 01:16:20;;;;;;;6.13;1.80;;;;;;;16.48;86.91;93592.41;723582;41;20027;-81
2021/07/07 01:16:51;;;;;;;2.20;1.90;;;;;;;16.46;87.11;93597.13;713844;41;21945;-82
2021/07/07 01:17:24;;;;;;;4.65;1.83;;;;;;;16.46;86.88;93597.13;717260;41;20400;-81
2021/07/07 01:17:54;;;;;;;5.13;1.70;;;;;;;16.50;86.77;93582.44;713428;41;20060;-81
2021/07/07 01:18:25;;;;;;;2.15;1.95;;;;;;;16.52;86.59;93603.13;716491;41;20038;-81
2021/07/07 01:18:56;;;;;;;2.33;1.90;;;;;;;16.57;86.55;93601.25;715511;41;20720;-81
2021/07/07 01:19:27;;;;;;;4.78;2.00;;;;;;;16.55;86.61;93597.34;716787;41;20058;-82
2021/07/07 01:19:59;;;;;;;3.55;2.03;;;;;;;16.54;86.62;93596.56;715948;41;20038;-82
2021/07/07 01:20:30;;;;;;;3.13;1.70;;;;;;;16.54;86.83;93601.03;719251;41;20580;-81
2021/07/07 01:21:01;;;;;;;3.97;1.88;;;;;;;16.47;86.83;93591.63;716288;41;20508;-81
2021/07/07 01:21:34;;;;;;;3.47;1.75;;;;;;;16.46;87.21;93602.38;716905;41;20086;-81
2021/07/07 01:22:05;;;;;;;2.80;1.85;;;;;;;16.45;87.10;93585.09;716994;41;20092;-83
2021/07/07 01:22:37;;;;;;;4.85;1.95;;;;;;;16.49;87.11;93588.75;718288;41;20029;-82
2021/07/07 01:23:08;;;;;;;3.55;2.08;;;;;;;16.46;87.40;93597.94;718287;41;20041;-81
2021/07/07 01:23:38;;;;;;;3.65;1.80;;;;;;;16.49;87.12;93588.75;712613;41;20057;-80
2021/07/07 01:24:09;;;;;;;2.15;1.60;;;;;;;16.44;87.23;93594.81;716527;41;20100;-82
2021/07/07 01:24:43;;;;;;;4.03;2.67;;;;;;;16.48;87.10;93597.66;712276;41;20064;-82
2021/07/07 01:25:15;;;;;;;5.93;1.80;;;;;;;16.50;87.24;93598.19;716632;41;20042;-81
2021/07/07 01:25:46;;;;;;;3.40;1.98;;;;;;;16.46;87.05;93592.69;716204;41;20029;-85
2021/07/07 01:26:16;;;;;;;2.85;2.00;;;;;;;16.52;87.12;93592.63;716542;41;20038;-81
2021/07/07 01:26:48;;;;;;;3.45;1.77;;;;;;;16.49;87.10;93589.53;714173;41;20075;-82
2021/07/07 01:27:18;;;;;;;2.45;2.25;;;;;;;16.50;87.09;93592.94;717463;41;20106;-82
2021/07/07 01:27:49;;;;;;;6.50;1.80;;;;;;;16.52;87.05;93592.63;716027;41;20129;-83
2021/07/07 01:28:21;;;;;;;4.72;1.85;;;;;;;16.48;87.09;93593.19;716998;41;20125;-81
2021/07/07 01:28:51;;;;;;;4.45;1.77;;;;;;;16.49;86.97;93592.16;715903;41;20038;-82
2021/07/07 01:29:22;;;;;;;5.63;1.90;;;;;;;16.52;87.30;93592.63;717246;41;20037;-81
2021/07/07 01:29:53;;;;;;;1.98;1.80;;;;;;;16.47;87.11;93586.38;712839;41;20399;-82
2021/07/07 01:30:24;;;;;;;2.25;1.90;;;;;;;16.46;87.00;93581.38;717234;41;20033;-82
2021/07/07 01:30:55;;;;;;;2.30;1.70;;;;;;;16.51;87.10;93586.59;712433;41;20307;-83
2021/07/07 01:31:25;;;;;;;4.85;2.13;;;;;;;16.49;87.19;93586.91;717176;41;20049;-82
2021/07/07 01:31:56;;;;;;;4.13;1.92;;;;;;;16.48;87.01;93593.19;712138;41;20438;-82
2021/07/07 01:32:33;;;;;;;4.60;1.90;;;;;;;16.46;87.48;93589.25;716031;41;20193;-82
2021/07/07 01:33:11;;;;;;;3.83;1.65;;;;;;;16.50;87.57;93595.56;718055;41;20601;-81
2021/07/07 01:33:47;;;;;;;4.10;1.95;;;;;;;16.47;87.36;93596.88;715177;41;20147;-82
2021/07/07 01:34:18;;;;;;;7.57;2.10;;;;;;;16.47;87.49;93602.13;722195;41;20104;-82
2021/07/07 01:34:50;;;;;;;5.57;1.83;;;;;;;16.43;87.73;93595.88;713445;41;20113;-82
2021/07/07 01:35:22;;;;;;;3.40;2.10;;;;;;;16.42;87.94;93596.13;711271;41;20034;-82
2021/07/07 01:35:53;;;;;;;2.63;2.28;;;;;;;16.38;87.82;93587.25;718018;41;20088;-81
2021/07/07 01:36:23;;;;;;;3.45;2.20;;;;;;;16.45;87.64;93598.22;718492;41;20053;-82
2021/07/07 01:36:54;;;;;;;2.20;1.75;;;;;;;16.46;87.63;93595.31;715765;41;20052;-82
2021/07/07 01:37:26;;;;;;;4.68;2.10;;;;;;;16.45;87.80;93595.59;724883;40;20047;-81
2021/07/07 01:37:57;;;;;;;4.32;2.15;;;;;;;16.44;87.68;93599.28;719992;41;20048;-82
2021/07/07 01:38:28;;;;;;;2.38;2.00;;;;;;;16.45;87.86;93598.22;722944;40;20028;-82
2021/07/07 01:38:59;;;;;;;8.80;1.80;;;;;;;16.42;87.94;93588.25;710571;41;20057;-82
2021/07/07 01:39:29;;;;;;;2.58;2.08;;;;;;;16.44;87.88;93596.66;709910;41;20045;-81
2021/07/07 01:40:00;;;;;;;3.13;1.95;;;;;;;16.29;87.85;93573.94;712575;40;20105;-81
2021/07/07 01:40:31;;;;;;;5.97;2.40;;;;;;;16.36;87.91;93590.13;702138;40;20214;-82
2021/07/07 01:41:02;;;;;;;5.40;2.00;;;;;;;16.37;88.03;93594.31;710816;41;20922;-81
2021/07/07 01:41:33;;;;;;;2.88;2.20;;;;;;;16.36;88.23;93595.38;716915;41;20174;-81
2021/07/07 01:42:04;;;;;;;5.57;2.10;;;;;;;16.34;88.41;93591.47;709512;41;20086;-81
2021/07/07 01:42:35;;;;;;;3.75;2.10;;;;;;;16.12;88.26;93563.81;714800;41;20338;-82
2021/07/07 01:43:06;;;;;;;2.15;1.95;;;;;;;16.28;88.26;93588.88;718140;41;20056;-82
2021/07/07 01:43:36;;;;;;;2.22;1.80;;;;;;;16.34;88.31;93592.25;716279;41;20075;-81
2021/07/07 01:44:07;;;;;;;2.97;1.80;;;;;;;16.25;88.47;93586.00;718385;41;20041;-82
2021/07/07 01:44:37;;;;;;;5.63;2.05;;;;;;;16.22;88.72;93583.94;715710;41;20088;-83
2021/07/07 01:45:10;;;;;;;2.30;2.10;;;;;;;16.24;88.91;93582.63;716591;41;20147;-81
2021/07/07 01:45:40;;;;;;;2.80;2.20;;;;;;;16.18;88.86;93577.69;711965;41;20052;-81
2021/07/07 01:46:11;;;;;;;4.25;2.00;;;;;;;16.17;88.93;93569.03;711472;41;20051;-81
2021/07/07 01:46:41;;;;;;;4.15;2.10;;;;;;;16.25;89.07;93589.41;705995;41;20172;-81
2021/07/07 01:47:12;;;;;;;3.38;2.25;;;;;;;16.24;88.96;93582.63;717839;41;20074;-81
2021/07/07 01:47:43;;;;;;;3.95;2.20;;;;;;;16.20;88.97;93573.72;704101;41;20485;-81
2021/07/07 01:48:13;;;;;;;8.27;2.50;;;;;;;16.21;89.30;93579.75;714827;41;20051;-81
2021/07/07 01:48:44;;;;;;;5.07;2.28;;;;;;;16.19;89.30;93572.16;714685;41;20046;-84
2021/07/07 01:49:15;;;;;;;4.65;2.20;;;;;;;16.26;88.87;93577.88;712843;41;20156;-81
2021/07/07 01:49:45;;;;;;;5.63;2.00;;;;;;;16.28;88.69;93575.75;711876;41;20043;-81
2021/07/07 01:50:17;;;;;;;2.95;2.20;;;;;;;16.31;88.76;93578.88;716722;41;20050;-81
2021/07/07 01:50:48;;;;;;;3.35;2.00;;;;;;;16.33;88.30;93579.41;712545;41;20094;-81
2021/07/07 01:51:19;;;;;;;4.50;2.08;;;;;;;16.35;88.21;93587.81;718869;41;20147;-81
2021/07/07 01:51:49;;;;;;;6.63;1.95;;;;;;;16.31;88.23;93584.13;719000;41;20507;-81
2021/07/07 01:52:20;;;;;;;4.75;1.80;;;;;;;16.38;87.88;93582.00;720819;41;20032;-82
2021/07/07 01:52:52;;;;;;;2.65;1.90;;;;;;;16.40;87.87;93585.13;717564;41;20034;-81
2021/07/07 01:53:22;;;;;;;3.92;1.90;;;;;;;16.39;87.46;93580.94;714894;41;20060;-80
2021/07/07 01:53:53;;;;;;;4.03;2.03;;;;;;;16.39;87.26;93568.59;708939;41;20054;-84
2021/07/07 01:54:24;;;;;;;3.80;1.92;;;;;;;16.39;87.09;93580.94;714656;41;20131;-81
2021/07/07 01:54:54;;;;;;;3.22;1.88;;;;;;;16.35;87.50;93580.69;706472;41;20129;-81
2021/07/07 01:55:25;;;;;;;5.30;2.20;;;;;;;16.29;87.42;93579.19;719094;41;20101;-82
2021/07/07 01:55:56;;;;;;;3.20;1.92;;;;;;;16.39;87.75;93589.59;718403;41;20770;-81
2021/07/07 01:56:27;;;;;;;2.25;1.73;;;;;;;16.18;87.50;93567.19;719037;41;20033;-82
2021/07/07 01:56:57;;;;;;;4.05;1.98;;;;;;;16.17;88.00;93570.84;715911;41;20358;-81
2021/07/07 01:57:43;;;;;;;5.70;2.10;;;;;;;16.23;88.09;93602.06;716070;41;20046;-82
2021/07/07 01:58:13;;;;;;;2.20;2.03;;;;;;;16.24;88.50;93593.09;714299;41;20037;-83
2021/07/07 01:58:44;;;;;;;3.22;2.22;;;;;;;16.03;88.98;93581.97;712385;41;20045;-82
2021/07/07 01:59:14;;;;;;;8.85;2.00;;;;;;;16.12;89.39;93595.28;714184;41;20076;-81
2021/07/07 01:59:45;;;;;;;7.13;2.33;;;;;;;16.09;89.37;93592.44;712402;41;20090;-81
2021/07/07 02:00:17;;;;;;;5.50;1.98;;;;;;;16.10;89.43;93601.88;712557;41;20035;-81
2021/07/07 02:00:48;;;;;;;2.40;2.20;;;;;;;16.07;89.58;93608.44;712822;41;20046;-81
2021/07/07 02:01:19;;;;;;;5.05;2.00;;;;;;;16.06;89.82;93603.47;715184;41;20547;-81
2021/07/07 02:01:50;;;;;;;2.78;2.10;;;;;;;16.03;89.83;93604.81;713998;41;20042;-81
2021/07/07 02:02:21;;;;;;;3.15;2.03;;;;;;;16.03;89.88;93605.59;713518;41;20076;-81
2021/07/07 02:02:54;;;;;;;4.88;1.90;;;;;;;16.03;90.01;93602.97;708659;41;21078;-82
2021/07/07 02:03:25;;;;;;;2.78;2.20;;;;;;;16.01;89.95;93605.06;715310;41;20023;-82
2021/07/07 02:03:55;;;;;;;3.75;2.30;;;;;;;15.98;89.94;93602.97;714483;41;20049;-81
2021/07/07 02:04:26;;;;;;;4.47;2.15;;;;;;;16.03;89.85;93612.66;715566;41;20124;-81
2021/07/07 02:04:56;;;;;;;4.13;2.03;;;;;;;16.07;89.44;93613.69;714119;41;20806;-81
2021/07/07 02:05:35;;;;;;;3.33;2.00;;;;;;;16.18;88.92;93630.16;713455;41;20035;-81
2021/07/07 02:06:06;;;;;;;2.70;1.80;;;;;;;16.14;88.68;93623.88;710014;41;20054;-82
2021/07/07 02:06:36;;;;;;;3.33;1.90;;;;;;;16.18;87.75;93630.94;715805;41;20059;-81
2021/07/07 02:07:08;;;;;;;7.45;2.28;;;;;;;16.25;87.35;93643.75;718617;41;20045;-81
2021/07/07 02:07:39;;;;;;;2.25;2.05;;;;;;;16.21;88.56;93642.72;720033;41;20032;-81
2021/07/07 02:08:12;;;;;;;2.65;2.00;;;;;;;16.16;88.93;93635.66;723328;41;20136;-81
2021/07/07 02:08:43;;;;;;;3.85;2.17;;;;;;;16.12;89.02;93639.91;719284;41;20286;-82
2021/07/07 02:09:13;;;;;;;5.00;2.20;;;;;;;16.17;88.90;93639.88;721270;41;20041;-81
2021/07/07 02:09:44;;;;;;;4.13;2.13;;;;;;;16.21;88.63;93643.50;711140;41;20037;-85
2021/07/07 02:10:17;;;;;;;3.20;2.10;;;;;;;16.18;89.23;93644.06;718507;41;20049;-83
2021/07/07 02:10:47;;;;;;;2.45;2.22;;;;;;;16.17;89.24;93653.00;721930;41;20270;-84
2021/07/07 02:11:18;;;;;;;3.78;2.20;;;;;;;16.14;89.62;93653.53;722795;41;20039;-85
2021/07/07 02:11:49;;;;;;;3.13;1.95;;;;;;;16.15;89.53;93649.84;721333;41;20041;-85
2021/07/07 02:12:19;;;;;;;3.42;2.05;;;;;;;16.17;89.58;93650.38;714191;41;20518;-85
2021/07/07 02:12:50;;;;;;;5.20;2.00;;;;;;;15.94;89.85;93625.56;716698;41;20776;-84
2021/07/07 02:13:21;;;;;;;3.10;2.33;;;;;;;16.20;89.48;93657.69;718997;41;20102;-85
2021/07/07 02:13:53;;;;;;;3.05;2.00;;;;;;;16.15;89.39;93652.47;718468;41;20022;-84
2021/07/07 02:14:24;;;;;;;5.45;2.22;;;;;;;16.17;89.57;93650.38;718859;41;20030;-85
2021/07/07 02:14:54;;;;;;;6.32;2.10;;;;;;;16.13;89.74;93656.41;716513;41;20437;-85
2021/07/07 02:15:28;;;;;;;2.65;2.20;;;;;;;16.14;89.73;93650.09;717531;41;20094;-84
2021/07/07 02:15:59;;;;;;;2.75;2.30;;;;;;;15.92;89.83;93632.13;714685;41;20066;-84
2021/07/07 02:16:30;;;;;;;4.82;2.30;;;;;;;16.03;90.01;93641.53;718837;40;20130;-85
2021/07/07 02:17:00;;;;;;;3.45;2.20;;;;;;;16.09;90.33;93644.91;724164;40;20433;-85
2021/07/07 02:17:31;;;;;;;4.70;2.10;;;;;;;16.12;90.10;93645.16;722447;40;31570;-85
2021/07/07 02:18:03;;;;;;;2.47;2.28;;;;;;;16.13;90.05;93644.06;718338;40;20048;-85
2021/07/07 02:18:34;;;;;;;5.88;2.30;;;;;;;16.11;90.16;93646.19;715873;40;20102;-86
2021/07/07 02:19:05;;;;;;;5.07;2.30;;;;;;;16.07;90.11;93631.28;726233;40;20362;-85
2021/07/07 02:19:35;;;;;;;4.85;2.25;;;;;;;16.09;90.23;93635.19;717039;41;20044;-85
2021/07/07 02:20:09;;;;;;;2.70;2.00;;;;;;;16.01;90.27;93631.28;723287;41;20044;-85
2021/07/07 02:20:42;;;;;;;5.10;2.30;;;;;;;16.07;90.23;93639.91;722340;41;20033;-85
2021/07/07 02:21:13;;;;;;;2.40;2.20;;;;;;;16.03;90.44;93637.06;724889;40;20079;-85
2021/07/07 02:21:44;;;;;;;6.00;2.30;;;;;;;16.08;90.41;93648.56;718555;41;20242;-85
2021/07/07 02:22:14;;;;;;;3.33;2.30;;;;;;;16.02;90.76;93645.19;721163;41;20045;-85
2021/07/07 02:22:47;;;;;;;3.33;2.38;;;;;;;16.04;90.92;93645.72;717660;40;20232;-85
2021/07/07 02:23:18;;;;;;;3.88;2.03;;;;;;;16.10;90.36;93636.75;717790;40;20173;-83
2021/07/07 02:23:48;;;;;;;2.80;2.22;;;;;;;16.10;90.29;93634.13;722332;41;20055;-84
2021/07/07 02:24:19;;;;;;;4.18;2.10;;;;;;;16.10;90.33;93635.97;724839;40;20900;-85
2021/07/07 02:24:49;;;;;;;2.70;2.28;;;;;;;16.17;90.15;93645.13;724730;40;20044;-84
2021/07/07 02:25:31;;;;;;;5.78;2.38;;;;;;;16.05;90.34;93626.28;722032;40;20030;-85
2021/07/07 02:26:02;;;;;;;2.75;2.20;;;;;;;16.07;90.21;93632.06;726468;40;20445;-82
2021/07/07 02:26:32;;;;;;;2.97;2.30;;;;;;;16.22;90.24;93647.69;726632;40;20065;-85
2021/07/07 02:27:03;;;;;;;2.47;2.10;;;;;;;16.23;89.72;93641.41;724451;40;20285;-84
2021/07/07 02:27:34;;;;;;;2.60;2.20;;;;;;;16.13;89.85;93630.97;717305;40;20040;-84
2021/07/07 02:28:06;;;;;;;5.03;2.28;;;;;;;16.21;90.04;93650.59;719471;40;20054;-83
2021/07/07 02:28:36;;;;;;;2.20;2.00;;;;;;;16.11;90.27;93635.69;723553;40;31242;-83
2021/07/07 02:29:07;;;;;;;3.30;2.03;;;;;;;16.14;90.41;93639.63;723328;40;20059;-85